This is the latest recevied weather packets stored in our database for station/object OE-11149. If no packets are shown the sender has not sent any weather packets the latest 10 day(s).
| Time | Temp. | Humidity | Pressure | Rain* | Wind** | Luminosity | Snow |
|---|---|---|---|---|---|---|---|
| 1787927719 | 25° C | 37% | 851.6 hPa | 0 mm | - | 437 W/m² | - |
| 1787927119 | 25° C | 32% | 851.6 hPa | 0 mm | - | 417 W/m² | - |
| 1787926293 | 24.44° C | 36% | 851.7 hPa | 0 mm | - | 232 W/m² | - |
| 1787925920 | 24.44° C | 37% | 851.9 hPa | 0 mm | - | 291 W/m² | - |
| 1787925320 | 23.89° C | 43% | 852 hPa | 0 mm | - | 225 W/m² | - |
| 1787924493 | 24.44° C | 45% | 852 hPa | 0 mm | - | 391 W/m² | - |
| 1787924120 | 25° C | 36% | 852 hPa | 0 mm | - | 358 W/m² | - |
| 1787923520 | 24.44° C | 31% | 852 hPa | 0 mm | - | 344 W/m² | - |
| 1787922691 | 25° C | 31% | 852.1 hPa | 0 mm | - | 510 W/m² | - |
| 1787922319 | 25° C | 32% | 852.1 hPa | 0 mm | - | 470 W/m² | - |
| 1787921720 | 24.44° C | 30% | 852.1 hPa | 0 mm | - | 411 W/m² | - |
| 1787920892 | 25° C | 43% | 852.3 hPa | 0 mm | - | 490 W/m² | - |
| 1787920520 | 24.44° C | 42% | 852.1 hPa | 0 mm | - | 570 W/m² | - |
| 1787919920 | 24.44° C | 41% | 852.1 hPa | 0 mm | - | 629 W/m² | - |
| 1787919092 | 25° C | 36% | 852.1 hPa | 0 mm | - | 623 W/m² | - |
| 1787918719 | 24.44° C | 39% | 852.3 hPa | 0 mm | - | 503 W/m² | - |
| 1787918119 | 25° C | 44% | 852.1 hPa | 0 mm | - | 742 W/m² | - |
| 1787917292 | 24.44° C | 43% | 852.1 hPa | 0 mm | - | 815 W/m² | - |
| 1787916920 | 23.89° C | 50% | 852.2 hPa | 0 mm | - | 815 W/m² | - |
| 1787916320 | 23.89° C | 49% | 852.1 hPa | 0 mm | - | 801 W/m² | - |
| 1787915492 | 23.89° C | 52% | 852.1 hPa | 0 mm | - | 782 W/m² | - |
| 1787915120 | 23.33° C | 54% | 852.2 hPa | 0 mm | - | 788 W/m² | - |
| 1787914520 | 22.78° C | 57% | 852.2 hPa | 0 mm | - | 762 W/m² | - |
| 1787913693 | 21.67° C | 59% | 852.3 hPa | 0 mm | - | 748 W/m² | - |
| 1787913320 | 21.67° C | 62% | 852.3 hPa | 0 mm | - | 748 W/m² | - |
* Rain latest hour (hover to see other rain measurements)
** Current wind speed in m/s (hover to see current wind gust speed)